메인 페이지
METAR-TAF:

METAR-TAF

공항 :

아타튀르크 국제공항

이스탄불 이스탄불, 터키

위도: 40-58N, 경도: 028-49E, 고도: 48m

현재 날씨관측

예보는 51분 전, 09:20시(UTC)에 발표되었습니다.
동북동7kt
온도 14°C
습도 77%
기압 1007 hPa
시정 10km 이상
고도 2000ft 상공 구름 보통

METAR: LTBA 120920Z 07007KT 9999 SCT020 14/10 Q1007 NOSIG RMK RWY17L 04008KT 010V090 RWY05 04006KT RWY23 06008KT

시각: 13:11 (10:11 UTC)

예보

예보는 5 시간 31분 전, 04:40시(UTC)에 발표되었습니다.
예보 대상 시간: 12일 06시부터 13일 12시까지 (UTC)
북동12kt
시정 10km 이상
고도 2700ft 상공 구름 보통
고도 10000ft 상공 구름 많음
전환 중
12일 13시부터 12일 16시까지 (UTC)
여러 방향의 바람 2kt
고도 1000ft 상공 구름 보통
고도 2500ft 상공 구름 많음
약한소나기
확률 40% :
일시적
12일 18시부터 12일 22시까지 (UTC)
시정: 4000m
소나기
전환 중
13일 05시부터 13일 08시까지 (UTC)
남남서12kt
고도 3000ft 상공 구름 보통
고도 10000ft 상공 구름 많음

TAF: LTBA 120440Z 1206/1312 04012KT 9999 SCT027 BKN100 BECMG 1213/1216 VRB02KT -SHRA SCT010 BKN025 PROB40 TEMPO 1218/1222 4000 SHRA BECMG 1305/1308 21012KT SCT030 BKN100

4,000개 이상의 공항 관측 자료 및 예보 (METAR 및 TAF 보고).

지도상에서 검색 가능한 기상관측소가 노란 점과 빨간 점으로 표시되어 있습니다.

기상관측소 명을 보려면 표시 위로 마우스를 이동하세요.

날씨 관측과 예보를 보려면 클릭하세요.

지도 변경 : 확대하려면 엑스 표시가 있는 녹색 버튼, 축소하려면 빼기 표시가 있는 녹색 버튼, 다음 페이지의 지도를 보려면 녹색 화살표를 클릭하세요.


METAR-TAF: